createdAt,value
2023-05-16T00:00:46.864Z,0.00
2023-05-16T00:01:46.894Z,0.00
2023-05-16T00:02:46.905Z,0.00
2023-05-16T00:03:46.898Z,0.00
2023-05-16T00:04:46.807Z,0.00
2023-05-16T00:05:46.809Z,0.00
2023-05-16T00:06:46.818Z,0.00
2023-05-16T00:07:46.809Z,0.00
2023-05-16T00:08:46.776Z,0.00
2023-05-16T00:09:46.766Z,0.00
2023-05-16T00:10:46.793Z,0.00
2023-05-16T00:11:46.790Z,0.00
2023-05-16T00:12:46.728Z,0.00
2023-05-16T00:13:46.720Z,0.00
2023-05-16T00:14:46.716Z,0.00
2023-05-16T00:15:46.717Z,0.00
2023-05-16T00:16:46.715Z,0.00
2023-05-16T00:17:46.785Z,0.00
2023-05-16T00:18:46.714Z,0.00
2023-05-16T00:19:46.674Z,0.00
2023-05-16T00:20:46.655Z,0.00
2023-05-16T00:21:46.651Z,0.00
2023-05-16T00:22:46.633Z,0.00
2023-05-16T00:23:46.617Z,0.00
2023-05-16T00:24:46.614Z,0.00
2023-05-16T00:25:46.649Z,0.00
2023-05-16T00:26:46.596Z,0.00
2023-05-16T00:27:46.574Z,0.00
2023-05-16T00:28:46.568Z,0.00
2023-05-16T00:29:46.570Z,0.00
2023-05-16T00:30:46.541Z,0.00
2023-05-16T00:31:46.559Z,0.00
2023-05-16T00:32:46.634Z,0.00
2023-05-16T00:33:46.510Z,0.00
2023-05-16T00:34:46.606Z,0.00
2023-05-16T00:35:46.491Z,0.00
2023-05-16T00:36:46.492Z,0.00
2023-05-16T00:37:46.481Z,0.00
2023-05-16T00:38:46.489Z,0.00
2023-05-16T00:39:46.468Z,0.00
2023-05-16T00:40:46.446Z,0.00
2023-05-16T00:41:46.423Z,0.00
2023-05-16T00:42:46.434Z,0.00
2023-05-16T00:43:46.424Z,0.00
2023-05-16T00:44:46.399Z,0.00
2023-05-16T00:45:46.503Z,0.00
2023-05-16T00:46:46.612Z,0.00
2023-05-16T00:47:46.390Z,0.00
2023-05-16T00:48:46.370Z,0.00
2023-05-16T00:49:46.363Z,0.00
2023-05-16T00:50:46.346Z,0.00
2023-05-16T00:51:46.330Z,0.00
2023-05-16T00:52:46.323Z,0.00
2023-05-16T00:53:46.311Z,0.00
2023-05-16T00:54:46.291Z,0.00
2023-05-16T00:55:46.278Z,0.00
2023-05-16T00:56:46.278Z,0.00
2023-05-16T00:57:46.269Z,0.00
2023-05-16T00:58:46.247Z,0.00
2023-05-16T00:59:46.233Z,0.00
2023-05-16T01:00:48.429Z,0.00
2023-05-16T01:01:46.240Z,0.00
2023-05-16T01:02:46.328Z,0.00
2023-05-16T01:03:46.493Z,0.00
2023-05-16T01:04:46.189Z,0.00
2023-05-16T01:05:46.811Z,0.00
2023-05-16T01:06:46.168Z,0.00
2023-05-16T01:07:46.179Z,0.00
2023-05-16T01:08:46.151Z,0.00
2023-05-16T01:09:46.144Z,0.00
2023-05-16T01:10:46.177Z,0.00
2023-05-16T01:11:46.122Z,0.00
2023-05-16T01:12:46.142Z,0.00
2023-05-16T01:13:46.131Z,0.00
2023-05-16T01:14:46.089Z,0.00
2023-05-16T01:15:46.095Z,0.00
2023-05-16T01:16:46.092Z,0.00
2023-05-16T01:17:46.112Z,0.00
2023-05-16T01:18:46.061Z,0.00
2023-05-16T01:19:46.030Z,0.00
2023-05-16T01:20:46.008Z,0.00
2023-05-16T01:21:46.029Z,0.00
2023-05-16T01:22:46.066Z,0.00
2023-05-16T01:23:45.984Z,0.00
2023-05-16T01:24:45.968Z,0.00
2023-05-16T01:25:45.960Z,0.00
2023-05-16T01:26:45.980Z,0.00
2023-05-16T01:27:45.941Z,0.00
2023-05-16T01:28:45.926Z,0.00
2023-05-16T01:29:45.931Z,0.00
2023-05-16T01:30:45.919Z,0.00
2023-05-16T01:31:45.962Z,0.00
2023-05-16T01:32:45.957Z,0.00
2023-05-16T01:33:45.898Z,0.00
2023-05-16T01:34:45.896Z,0.00
2023-05-16T01:35:45.883Z,0.00
2023-05-16T01:36:45.838Z,0.00
2023-05-16T01:37:45.847Z,0.00
2023-05-16T01:38:45.822Z,0.00
2023-05-16T01:39:45.812Z,0.00
2023-05-16T01:40:45.832Z,0.00
2023-05-16T01:41:45.790Z,0.00
2023-05-16T01:42:45.795Z,0.00
2023-05-16T01:43:45.768Z,0.00
2023-05-16T01:44:45.767Z,0.00
2023-05-16T01:45:45.823Z,0.00
2023-05-16T01:46:45.788Z,0.00
2023-05-16T01:47:45.748Z,0.00
2023-05-16T01:48:45.736Z,0.00
2023-05-16T01:49:45.735Z,0.00
2023-05-16T01:50:45.710Z,0.00
2023-05-16T01:51:45.701Z,0.00
2023-05-16T01:52:45.676Z,0.00
2023-05-16T01:53:45.696Z,0.00
2023-05-16T01:54:45.687Z,0.00
2023-05-16T01:55:45.667Z,0.00
2023-05-16T01:56:45.640Z,0.00
2023-05-16T01:57:45.623Z,0.00
2023-05-16T01:58:45.615Z,0.00
2023-05-16T01:59:45.617Z,0.00
2023-05-16T02:00:45.640Z,0.00
2023-05-16T02:01:45.595Z,0.00
2023-05-16T02:02:45.636Z,0.00
2023-05-16T02:03:45.642Z,0.00
2023-05-16T02:04:45.552Z,0.00
2023-05-16T02:05:45.529Z,0.00
2023-05-16T02:06:45.526Z,0.00
2023-05-16T02:07:45.524Z,0.00
2023-05-16T02:08:45.526Z,0.00
2023-05-16T02:09:45.531Z,0.00
2023-05-16T02:10:45.473Z,0.00
2023-05-16T02:11:45.475Z,0.00
2023-05-16T02:12:45.479Z,0.00
2023-05-16T02:13:45.458Z,0.00
2023-05-16T02:14:45.449Z,0.00
2023-05-16T02:15:45.426Z,0.00
2023-05-16T02:16:45.516Z,0.00
2023-05-16T02:17:45.501Z,0.00
2023-05-16T02:18:45.413Z,0.00
2023-05-16T02:19:45.396Z,0.00
2023-05-16T02:20:45.408Z,0.00
2023-05-16T02:21:45.376Z,0.00
2023-05-16T02:22:45.375Z,0.00
2023-05-16T02:23:45.337Z,0.00
2023-05-16T02:24:45.333Z,0.00
2023-05-16T02:25:45.334Z,0.00
2023-05-16T02:26:45.335Z,0.00
2023-05-16T02:27:45.333Z,0.00
2023-05-16T02:28:45.296Z,0.00
2023-05-16T02:29:45.276Z,0.00
2023-05-16T02:30:45.311Z,0.00
2023-05-16T02:31:45.268Z,0.00
2023-05-16T02:32:45.381Z,0.00
2023-05-16T02:33:45.249Z,0.00
2023-05-16T02:34:45.223Z,0.00
2023-05-16T02:35:45.208Z,0.00
2023-05-16T02:36:45.214Z,0.00
2023-05-16T02:37:45.199Z,0.00
2023-05-16T02:38:45.201Z,0.00
2023-05-16T02:39:45.180Z,0.00
2023-05-16T02:40:45.188Z,0.00
2023-05-16T02:41:45.188Z,0.00
2023-05-16T02:42:45.154Z,0.00
2023-05-16T02:43:46.868Z,0.00
2023-05-16T02:44:45.124Z,0.00
2023-05-16T02:45:45.132Z,0.00
2023-05-16T02:46:45.169Z,0.00
2023-05-16T02:47:45.102Z,0.00
2023-05-16T02:48:45.071Z,0.00
2023-05-16T02:49:45.066Z,0.00
2023-05-16T02:50:45.072Z,0.00
2023-05-16T02:51:45.062Z,0.00
2023-05-16T02:52:45.032Z,0.00
2023-05-16T02:53:45.059Z,0.00
2023-05-16T02:54:46.906Z,0.00
2023-05-16T02:55:46.024Z,0.00
2023-05-16T02:56:44.987Z,0.00
2023-05-16T02:57:45.008Z,0.00
2023-05-16T02:58:45.011Z,0.00
2023-05-16T02:59:44.986Z,0.00
2023-05-16T03:00:44.966Z,0.00
2023-05-16T03:01:45.014Z,0.00
2023-05-16T03:02:45.023Z,0.00
2023-05-16T03:03:45.007Z,0.00
2023-05-16T03:04:44.951Z,0.00
2023-05-16T03:05:44.896Z,0.00
2023-05-16T03:06:44.890Z,0.00
2023-05-16T03:07:44.881Z,0.00
2023-05-16T03:08:44.876Z,0.00
2023-05-16T03:09:44.872Z,0.00
2023-05-16T03:10:44.849Z,0.00
2023-05-16T03:11:44.845Z,0.00
2023-05-16T03:12:44.829Z,0.00
2023-05-16T03:13:44.828Z,0.00
2023-05-16T03:14:44.821Z,0.00
2023-05-16T03:15:44.858Z,0.00
2023-05-16T03:16:44.882Z,0.00
2023-05-16T03:17:44.872Z,0.00
2023-05-16T03:18:44.787Z,0.00
2023-05-16T03:19:44.752Z,0.00
2023-05-16T03:20:44.741Z,0.00
2023-05-16T03:21:44.739Z,0.00
2023-05-16T03:22:44.724Z,0.00
2023-05-16T03:23:44.704Z,0.00
2023-05-16T03:24:44.872Z,0.00
2023-05-16T03:25:44.716Z,0.00
2023-05-16T03:26:44.704Z,0.00
2023-05-16T03:27:44.678Z,0.00
2023-05-16T03:28:44.668Z,0.00
2023-05-16T03:29:44.643Z,0.00
2023-05-16T03:30:44.689Z,0.00
2023-05-16T03:31:44.676Z,0.00
2023-05-16T03:32:44.664Z,0.00
2023-05-16T03:33:44.608Z,0.00
2023-05-16T03:34:44.610Z,0.00
2023-05-16T03:35:44.603Z,0.00
2023-05-16T03:36:44.574Z,0.00
2023-05-16T03:37:44.596Z,0.00
2023-05-16T03:38:44.563Z,0.00
2023-05-16T03:39:44.559Z,0.00
2023-05-16T03:40:44.534Z,0.00
2023-05-16T03:41:44.529Z,0.00
2023-05-16T03:42:44.524Z,0.00
2023-05-16T03:43:44.514Z,0.00
2023-05-16T03:44:44.501Z,0.00
2023-05-16T03:45:44.505Z,0.00
2023-05-16T03:46:44.472Z,0.00
2023-05-16T03:47:44.489Z,0.00
2023-05-16T03:48:44.458Z,0.00
2023-05-16T03:49:44.457Z,0.00
2023-05-16T03:50:44.477Z,0.00
2023-05-16T03:51:44.425Z,0.00
2023-05-16T03:52:44.435Z,0.00
2023-05-16T03:53:44.420Z,0.00
2023-05-16T03:54:44.404Z,0.00
2023-05-16T03:55:45.478Z,0.00
2023-05-16T03:56:44.373Z,0.00
2023-05-16T03:57:44.352Z,0.00
2023-05-16T03:58:44.380Z,0.00
2023-05-16T03:59:44.322Z,0.00
2023-05-16T04:00:44.321Z,0.00
2023-05-16T04:01:44.375Z,0.00
2023-05-16T04:02:44.550Z,0.00
2023-05-16T04:03:44.368Z,0.00
2023-05-16T04:04:44.282Z,0.00
2023-05-16T04:05:44.367Z,0.00
2023-05-16T04:06:44.245Z,0.00
2023-05-16T04:07:44.260Z,0.00
2023-05-16T04:08:44.245Z,0.00
2023-05-16T04:09:44.247Z,0.00
2023-05-16T04:10:44.216Z,0.00
2023-05-16T04:11:44.201Z,0.00
2023-05-16T04:12:44.225Z,0.00
2023-05-16T04:13:44.263Z,0.00
2023-05-16T04:14:44.166Z,0.00
2023-05-16T04:15:44.172Z,0.00
2023-05-16T04:16:44.202Z,0.00
2023-05-16T04:17:44.209Z,0.00
2023-05-16T04:18:44.152Z,0.00
2023-05-16T04:19:44.141Z,0.00
2023-05-16T04:20:44.110Z,0.00
2023-05-16T04:21:44.104Z,0.00
2023-05-16T04:22:44.096Z,0.00
2023-05-16T04:23:44.073Z,0.00
2023-05-16T04:24:44.073Z,0.00
2023-05-16T04:25:44.065Z,0.00
2023-05-16T04:26:44.039Z,0.00
2023-05-16T04:27:44.047Z,0.00
2023-05-16T04:28:44.026Z,0.00
2023-05-16T04:29:44.026Z,0.00
2023-05-16T04:30:44.007Z,0.00
2023-05-16T04:31:44.044Z,0.00
2023-05-16T04:32:44.013Z,0.00
2023-05-16T04:33:43.964Z,0.00
2023-05-16T04:34:43.968Z,0.00
2023-05-16T04:35:43.969Z,0.00
2023-05-16T04:36:43.967Z,0.00
2023-05-16T04:37:43.921Z,0.00
2023-05-16T04:38:43.918Z,0.00
2023-05-16T04:39:43.904Z,5.62
2023-05-16T04:40:43.959Z,5.62
2023-05-16T04:41:43.918Z,5.62
2023-05-16T04:42:43.867Z,5.62
2023-05-16T04:43:43.870Z,5.62
2023-05-16T04:44:43.880Z,5.62
2023-05-16T04:45:43.870Z,5.62
2023-05-16T04:46:43.892Z,5.62
2023-05-16T04:47:43.858Z,5.62
2023-05-16T04:48:43.806Z,5.62
2023-05-16T04:49:43.804Z,5.62
2023-05-16T04:50:43.808Z,11.25
2023-05-16T04:51:43.803Z,11.25
2023-05-16T04:52:43.767Z,11.25
2023-05-16T04:53:43.764Z,11.25
2023-05-16T04:54:43.756Z,11.25
2023-05-16T04:55:43.753Z,11.25
2023-05-16T04:56:43.753Z,11.25
2023-05-16T04:57:43.748Z,11.25
2023-05-16T04:58:43.715Z,11.25
2023-05-16T04:59:43.720Z,11.25
2023-05-16T05:00:43.683Z,11.25
2023-05-16T05:01:43.707Z,11.25
2023-05-16T05:02:43.713Z,11.25
2023-05-16T05:03:44.665Z,11.25
2023-05-16T05:04:44.106Z,11.25
2023-05-16T05:05:43.659Z,11.25
2023-05-16T05:06:44.435Z,5.62
2023-05-16T05:07:43.620Z,5.62
2023-05-16T05:08:43.605Z,5.62
2023-05-16T05:09:43.657Z,11.25
2023-05-16T05:10:43.583Z,11.25
2023-05-16T05:11:43.564Z,11.25
2023-05-16T05:12:43.551Z,11.25
2023-05-16T05:13:43.551Z,11.25
2023-05-16T05:14:43.550Z,11.25
2023-05-16T05:15:43.523Z,11.25
2023-05-16T05:16:43.509Z,11.25
2023-05-16T05:17:43.613Z,5.62
2023-05-16T05:18:43.634Z,11.25
2023-05-16T05:19:43.503Z,11.25
2023-05-16T05:20:43.464Z,11.25
2023-05-16T05:21:43.469Z,11.25
2023-05-16T05:22:43.456Z,11.25
2023-05-16T05:23:43.481Z,11.25
2023-05-16T05:26:00.610Z,11.25
2023-05-16T05:27:00.626Z,11.25
2023-05-16T05:28:00.719Z,11.25
2023-05-16T05:29:05.509Z,16.88
2023-05-16T05:30:01.567Z,16.88
2023-05-16T05:31:00.559Z,16.88
2023-05-16T05:32:00.628Z,16.88
2023-05-16T05:33:00.651Z,16.88
2023-05-16T05:34:00.519Z,16.88
2023-05-16T05:35:00.600Z,16.88
2023-05-16T05:36:02.524Z,16.88
2023-05-16T05:37:00.493Z,16.88
2023-05-16T05:38:00.484Z,16.88
2023-05-16T05:39:00.548Z,22.50
2023-05-16T05:40:00.469Z,22.50
2023-05-16T05:41:00.435Z,22.50
2023-05-16T05:42:00.439Z,22.50
2023-05-16T05:43:00.438Z,22.50
2023-05-16T05:44:00.410Z,16.88
2023-05-16T05:45:00.395Z,16.88
2023-05-16T05:46:00.438Z,16.88
2023-05-16T05:47:00.395Z,16.88
2023-05-16T05:48:00.367Z,16.88
2023-05-16T05:49:00.350Z,16.88
2023-05-16T05:50:00.350Z,16.88
2023-05-16T05:51:00.327Z,16.88
2023-05-16T05:52:00.347Z,11.25
2023-05-16T05:53:00.314Z,11.25
2023-05-16T05:54:00.300Z,11.25
2023-05-16T05:55:00.309Z,16.88
2023-05-16T05:56:00.296Z,16.88
2023-05-16T05:57:00.282Z,16.88
2023-05-16T05:58:00.263Z,22.50
2023-05-16T05:59:00.256Z,22.50
2023-05-16T06:00:00.241Z,16.88
2023-05-16T06:01:00.304Z,16.88
2023-05-16T06:02:00.279Z,16.88
2023-05-16T06:03:00.247Z,22.50
2023-05-16T06:04:02.177Z,22.50
2023-05-16T06:05:00.255Z,16.88
2023-05-16T06:06:00.239Z,16.88
2023-05-16T06:07:00.161Z,22.50
2023-05-16T06:08:00.153Z,22.50
2023-05-16T06:09:00.149Z,22.50
2023-05-16T06:10:00.229Z,22.50
2023-05-16T06:11:00.176Z,22.50
2023-05-16T06:12:00.160Z,22.50
2023-05-16T06:13:00.121Z,16.88
2023-05-16T06:14:00.141Z,16.88
2023-05-16T06:15:00.107Z,16.88
2023-05-16T06:16:00.123Z,16.88
2023-05-16T06:17:00.075Z,16.88
2023-05-16T06:18:00.114Z,16.88
2023-05-16T06:19:00.099Z,16.88
2023-05-16T06:20:00.068Z,22.50
2023-05-16T06:21:00.042Z,22.50
2023-05-16T06:22:00.005Z,16.88
2023-05-16T06:23:00.000Z,16.88
2023-05-16T06:23:59.982Z,16.88
2023-05-16T06:24:59.988Z,16.88
2023-05-16T06:25:59.976Z,16.88
2023-05-16T06:27:00.049Z,16.88
2023-05-16T06:27:59.956Z,16.88
2023-05-16T06:28:59.928Z,22.50
2023-05-16T06:29:59.932Z,22.50
2023-05-16T06:30:59.926Z,22.50
2023-05-16T06:32:00.047Z,22.50
2023-05-16T06:32:59.916Z,22.50
2023-05-16T06:33:59.879Z,22.50
2023-05-16T06:34:59.882Z,22.50
2023-05-16T06:35:59.864Z,22.50
2023-05-16T06:36:59.958Z,28.12
2023-05-16T06:37:59.844Z,28.12
2023-05-16T06:38:59.828Z,33.75
2023-05-16T06:39:59.828Z,33.75
2023-05-16T06:40:59.803Z,33.75
2023-05-16T06:41:59.819Z,33.75
2023-05-16T06:42:59.813Z,39.38
2023-05-16T06:43:59.814Z,39.38
2023-05-16T06:44:59.801Z,39.38
2023-05-16T06:45:59.815Z,28.12
2023-05-16T06:46:59.811Z,28.12
2023-05-16T06:47:59.808Z,22.50
2023-05-16T06:48:59.755Z,22.50
2023-05-16T06:49:59.758Z,22.50
2023-05-16T06:50:59.728Z,22.50
2023-05-16T06:51:59.767Z,22.50
2023-05-16T06:52:59.712Z,22.50
2023-05-16T06:54:00.317Z,22.50
2023-05-16T06:54:59.682Z,28.12
2023-05-16T06:55:59.674Z,28.12
2023-05-16T06:56:59.660Z,33.75
2023-05-16T06:57:59.697Z,33.75
2023-05-16T06:58:59.673Z,39.38
2023-05-16T06:59:59.647Z,33.75
2023-05-16T07:00:59.677Z,39.38
2023-05-16T07:01:59.641Z,39.38
2023-05-16T07:02:59.685Z,39.38
2023-05-16T07:03:59.656Z,39.38
2023-05-16T07:04:59.600Z,45.00
2023-05-16T07:05:59.606Z,45.00
2023-05-16T07:06:59.634Z,39.38
2023-05-16T07:07:59.589Z,39.38
2023-05-16T07:08:59.549Z,39.38
2023-05-16T07:09:59.526Z,39.38
2023-05-16T07:10:59.518Z,39.38
2023-05-16T07:11:59.532Z,39.38
2023-05-16T07:12:59.506Z,39.38
2023-05-16T07:13:59.490Z,39.38
2023-05-16T07:14:59.527Z,39.38
2023-05-16T07:15:59.527Z,39.38
2023-05-16T07:16:59.637Z,39.38
2023-05-16T07:18:00.153Z,39.38
2023-05-16T07:18:59.482Z,39.38
2023-05-16T07:19:59.416Z,39.38
2023-05-16T07:20:59.615Z,39.38
2023-05-16T07:21:59.425Z,39.38
2023-05-16T07:22:59.447Z,33.75
2023-05-16T07:23:59.375Z,33.75
2023-05-16T07:24:59.379Z,33.75
2023-05-16T07:25:59.364Z,33.75
2023-05-16T07:26:59.356Z,33.75
2023-05-16T07:27:59.405Z,33.75
2023-05-16T07:28:59.317Z,33.75
2023-05-16T07:29:59.370Z,33.75
2023-05-16T07:30:59.613Z,33.75
2023-05-16T07:31:59.636Z,33.75
2023-05-16T07:33:00.067Z,33.75
2023-05-16T07:33:59.279Z,33.75
2023-05-16T07:34:59.264Z,33.75
2023-05-16T07:36:12.171Z,33.75
2023-05-16T07:37:00.274Z,33.75
2023-05-16T07:37:59.266Z,33.75
2023-05-16T07:38:59.277Z,33.75
2023-05-16T07:39:59.204Z,33.75
2023-05-16T07:40:59.230Z,33.75
2023-05-16T07:41:59.179Z,33.75
2023-05-16T07:42:59.199Z,33.75
2023-05-16T07:43:59.163Z,28.12
2023-05-16T07:44:59.159Z,28.12
2023-05-16T07:45:59.275Z,28.12
2023-05-16T07:46:59.149Z,28.12
2023-05-16T07:47:59.266Z,22.50
2023-05-16T07:48:59.104Z,22.50
2023-05-16T07:49:59.102Z,22.50
2023-05-16T07:50:59.128Z,22.50
2023-05-16T07:51:59.126Z,22.50
2023-05-16T07:52:59.126Z,22.50
2023-05-16T07:53:59.044Z,28.12
2023-05-16T07:54:59.081Z,28.12
2023-05-16T07:55:59.803Z,33.75
2023-05-16T07:56:59.025Z,33.75
2023-05-16T07:57:59.040Z,33.75
2023-05-16T07:59:00.569Z,33.75
2023-05-16T07:59:59.081Z,33.75
2023-05-16T08:00:59.013Z,39.38
2023-05-16T08:01:59.003Z,50.62
2023-05-16T08:02:59.148Z,56.25
2023-05-16T08:03:59.014Z,61.88
2023-05-16T08:04:59.049Z,67.50
2023-05-16T08:05:59.000Z,67.50
2023-05-16T08:06:58.924Z,67.50
2023-05-16T08:07:58.901Z,73.12
2023-05-16T08:08:58.908Z,73.12
2023-05-16T08:09:58.924Z,73.12
2023-05-16T08:10:58.882Z,73.12
2023-05-16T08:11:58.870Z,73.12
2023-05-16T08:12:58.873Z,73.12
2023-05-16T08:13:58.856Z,73.12
2023-05-16T08:14:58.974Z,73.12
2023-05-16T08:15:58.908Z,73.12
2023-05-16T08:16:59.542Z,67.50
2023-05-16T08:17:59.586Z,67.50
2023-05-16T08:18:58.891Z,67.50
2023-05-16T08:19:58.786Z,61.88
2023-05-16T08:20:58.808Z,67.50
2023-05-16T08:21:58.859Z,73.12
2023-05-16T08:23:00.054Z,73.12
2023-05-16T08:23:58.734Z,73.12
2023-05-16T08:24:58.754Z,73.12
2023-05-16T08:25:59.652Z,73.12
2023-05-16T08:26:58.774Z,73.12
2023-05-16T08:27:58.713Z,73.12
2023-05-16T08:28:58.896Z,78.75
2023-05-16T08:29:58.672Z,78.75
2023-05-16T08:30:58.724Z,78.75
2023-05-16T08:31:58.723Z,73.12
2023-05-16T08:32:58.791Z,78.75
2023-05-16T08:33:58.626Z,78.75
2023-05-16T08:34:58.761Z,78.75
2023-05-16T08:35:58.658Z,78.75
2023-05-16T08:36:58.691Z,78.75
2023-05-16T08:37:58.659Z,73.12
2023-05-16T08:38:58.584Z,73.12
2023-05-16T08:39:58.607Z,73.12
2023-05-16T08:40:58.603Z,73.12
2023-05-16T08:41:58.803Z,73.12
2023-05-16T08:42:58.590Z,78.75
2023-05-16T08:43:59.136Z,78.75
2023-05-16T08:44:58.504Z,84.38
2023-05-16T08:45:58.573Z,84.38
2023-05-16T08:46:58.638Z,84.38
2023-05-16T08:47:58.540Z,95.62
2023-05-16T08:48:58.462Z,101.25
2023-05-16T08:49:58.486Z,106.88
2023-05-16T08:50:58.495Z,101.25
2023-05-16T08:51:58.530Z,106.88
2023-05-16T08:52:58.437Z,106.88
2023-05-16T08:53:58.506Z,123.75
2023-05-16T08:55:09.364Z,118.12
2023-05-16T08:55:59.510Z,118.12
2023-05-16T08:56:59.056Z,123.75
2023-05-16T08:57:58.394Z,112.50
2023-05-16T08:58:59.231Z,123.75
2023-05-16T08:59:59.313Z,123.75
2023-05-16T09:01:01.195Z,112.50
2023-05-16T09:01:59.155Z,95.62
2023-05-16T09:02:58.558Z,95.62
2023-05-16T09:03:58.365Z,90.00
2023-05-16T09:04:59.060Z,95.62
2023-05-16T09:05:58.304Z,95.62
2023-05-16T09:06:58.334Z,95.62
2023-05-16T09:07:58.291Z,90.00
2023-05-16T09:08:58.319Z,90.00
2023-05-16T09:09:58.600Z,95.62
2023-05-16T09:10:58.308Z,101.25
2023-05-16T09:11:58.275Z,106.88
2023-05-16T09:12:59.343Z,106.88
2023-05-16T09:13:59.139Z,101.25
2023-05-16T09:14:59.066Z,106.88
2023-05-16T09:15:58.211Z,106.88
2023-05-16T09:16:58.266Z,106.88
2023-05-16T09:17:58.288Z,101.25
2023-05-16T09:18:59.173Z,101.25
2023-05-16T09:19:58.180Z,123.75
2023-05-16T09:20:58.144Z,106.88
2023-05-16T09:21:58.146Z,101.25
2023-05-16T09:22:58.174Z,118.12
2023-05-16T09:23:58.179Z,135.00
2023-05-16T09:24:58.150Z,129.38
2023-05-16T09:25:58.165Z,106.88
2023-05-16T09:26:58.110Z,118.12
2023-05-16T09:27:58.068Z,129.38
2023-05-16T09:28:58.078Z,129.38
2023-05-16T09:29:58.118Z,135.00
2023-05-16T09:30:58.048Z,135.00
2023-05-16T09:31:58.029Z,135.00
2023-05-16T09:32:58.097Z,135.00
2023-05-16T09:33:58.008Z,140.62
2023-05-16T09:34:58.003Z,146.25
2023-05-16T09:35:58.008Z,146.25
2023-05-16T09:36:58.001Z,146.25
2023-05-16T09:37:57.989Z,146.25
2023-05-16T09:38:58.022Z,146.25
2023-05-16T09:39:58.015Z,151.88
2023-05-16T09:40:57.976Z,157.50
2023-05-16T09:41:58.005Z,151.88
2023-05-16T09:42:57.956Z,157.50
2023-05-16T09:43:57.942Z,163.12
2023-05-16T09:44:57.889Z,112.50
2023-05-16T09:45:57.929Z,135.00
2023-05-16T09:46:58.143Z,101.25
2023-05-16T09:47:57.955Z,129.38
2023-05-16T09:48:57.896Z,146.25
2023-05-16T09:49:57.825Z,106.88
2023-05-16T09:50:57.832Z,151.88
2023-05-16T09:51:57.812Z,146.25
2023-05-16T09:52:57.829Z,146.25
2023-05-16T09:53:57.850Z,135.00
2023-05-16T09:54:57.840Z,123.75
2023-05-16T09:55:57.761Z,123.75
2023-05-16T09:56:57.754Z,84.38
2023-05-16T09:57:57.881Z,84.38
2023-05-16T09:58:57.752Z,78.75
2023-05-16T09:59:57.760Z,78.75
2023-05-16T10:00:57.722Z,78.75
2023-05-16T10:01:57.797Z,84.38
2023-05-16T10:02:57.826Z,101.25
2023-05-16T10:03:57.749Z,151.88
2023-05-16T10:04:57.708Z,135.00
2023-05-16T10:05:57.662Z,151.88
2023-05-16T10:06:57.674Z,157.50
2023-05-16T10:07:57.655Z,157.50
2023-05-16T10:08:59.719Z,151.88
2023-05-16T10:09:57.636Z,151.88
2023-05-16T10:10:57.725Z,151.88
2023-05-16T10:11:57.620Z,118.12
2023-05-16T10:12:57.655Z,157.50
2023-05-16T10:13:57.574Z,106.88
2023-05-16T10:14:57.629Z,90.00
2023-05-16T10:15:57.624Z,90.00
2023-05-16T10:16:57.631Z,84.38
2023-05-16T10:17:57.554Z,146.25
2023-05-16T10:18:57.672Z,146.25
2023-05-16T10:19:57.515Z,101.25
2023-05-16T10:20:57.533Z,90.00
2023-05-16T10:21:57.587Z,84.38
2023-05-16T10:22:57.506Z,84.38
2023-05-16T10:23:57.480Z,84.38
2023-05-16T10:24:57.534Z,151.88
2023-05-16T10:25:57.505Z,84.38
2023-05-16T10:26:57.477Z,106.88
2023-05-16T10:27:57.436Z,90.00
2023-05-16T10:28:57.452Z,151.88
2023-05-16T10:29:57.400Z,157.50
2023-05-16T10:30:57.461Z,163.12
2023-05-16T10:31:57.434Z,163.12
2023-05-16T10:32:57.408Z,168.75
2023-05-16T10:33:57.359Z,168.75
2023-05-16T10:34:57.391Z,174.38
2023-05-16T10:35:57.354Z,174.38
2023-05-16T10:36:57.393Z,174.38
2023-05-16T10:37:57.396Z,168.75
2023-05-16T10:38:57.309Z,168.75
2023-05-16T10:39:57.298Z,140.62
2023-05-16T10:40:57.326Z,174.38
2023-05-16T10:41:57.320Z,106.88
2023-05-16T10:42:57.331Z,106.88
2023-05-16T10:43:57.243Z,163.12
2023-05-16T10:45:05.019Z,90.00
2023-05-16T10:45:58.341Z,118.12
2023-05-16T10:46:57.272Z,84.38
2023-05-16T10:47:57.296Z,84.38
2023-05-16T10:48:58.580Z,84.38
2023-05-16T10:49:58.228Z,157.50
2023-05-16T10:50:57.184Z,157.50
2023-05-16T10:51:57.174Z,163.12
2023-05-16T10:52:57.218Z,157.50
2023-05-16T10:53:57.183Z,163.12
2023-05-16T10:54:57.229Z,157.50
2023-05-16T10:55:57.135Z,157.50
2023-05-16T10:56:57.141Z,157.50
2023-05-16T10:57:57.162Z,118.12
2023-05-16T10:58:57.166Z,135.00
2023-05-16T10:59:58.523Z,112.50
2023-05-16T11:00:57.115Z,101.25
2023-05-16T11:01:57.552Z,163.12
2023-05-16T11:02:57.214Z,101.25
2023-05-16T11:03:57.277Z,106.88
2023-05-16T11:04:57.050Z,118.12
2023-05-16T11:05:57.022Z,180.00
2023-05-16T11:06:57.075Z,180.00
2023-05-16T11:07:57.009Z,180.00
2023-05-16T11:08:57.099Z,123.75
2023-05-16T11:09:57.155Z,180.00
2023-05-16T11:10:57.030Z,95.62
2023-05-16T11:11:57.010Z,95.62
2023-05-16T11:12:57.593Z,90.00
2023-05-16T11:13:56.948Z,84.38
2023-05-16T11:14:56.967Z,84.38
2023-05-16T11:15:56.937Z,157.50
2023-05-16T11:16:56.970Z,163.12
2023-05-16T11:17:56.950Z,163.12
2023-05-16T11:18:56.920Z,157.50
2023-05-16T11:19:56.977Z,163.12
2023-05-16T11:20:56.966Z,163.12
2023-05-16T11:21:56.876Z,163.12
2023-05-16T11:22:56.891Z,168.75
2023-05-16T11:23:56.888Z,168.75
2023-05-16T11:24:56.872Z,174.38
2023-05-16T11:25:56.909Z,180.00
2023-05-16T11:26:56.797Z,185.62
2023-05-16T11:27:56.827Z,191.25
2023-05-16T11:28:56.928Z,196.88
2023-05-16T11:29:56.768Z,191.25
2023-05-16T11:30:56.860Z,163.12
2023-05-16T11:31:57.065Z,129.38
2023-05-16T11:32:56.806Z,101.25
2023-05-16T11:33:57.672Z,95.62
2023-05-16T11:34:56.729Z,90.00
2023-05-16T11:36:11.142Z,90.00
2023-05-16T11:36:57.976Z,90.00
2023-05-16T11:37:56.679Z,90.00
2023-05-16T11:38:56.890Z,90.00
2023-05-16T11:39:56.758Z,90.00
2023-05-16T11:40:57.199Z,106.88
2023-05-16T11:41:56.680Z,174.38
2023-05-16T11:42:56.678Z,202.50
2023-05-16T11:43:56.634Z,202.50
2023-05-16T11:44:56.912Z,208.12
2023-05-16T11:45:56.610Z,208.12
2023-05-16T11:46:56.782Z,208.12
2023-05-16T11:47:56.598Z,180.00
2023-05-16T11:48:56.571Z,118.12
2023-05-16T11:49:56.573Z,129.38
2023-05-16T11:50:56.576Z,118.12
2023-05-16T11:51:56.555Z,157.50
2023-05-16T11:52:56.703Z,219.38
2023-05-16T11:53:56.505Z,219.38
2023-05-16T11:54:56.500Z,219.38
2023-05-16T11:55:56.927Z,225.00
2023-05-16T11:56:56.501Z,225.00
2023-05-16T11:57:56.483Z,236.25
2023-05-16T11:58:56.458Z,230.62
2023-05-16T11:59:56.495Z,112.50
2023-05-16T12:00:56.769Z,129.38
2023-05-16T12:01:56.498Z,230.62
2023-05-16T12:02:56.545Z,230.62
2023-05-16T12:03:56.531Z,225.00
2023-05-16T12:04:56.459Z,225.00
2023-05-16T12:05:56.416Z,208.12
2023-05-16T12:06:56.394Z,168.75
2023-05-16T12:07:56.384Z,135.00
2023-05-16T12:08:56.352Z,163.12
2023-05-16T12:09:56.332Z,213.75
2023-05-16T12:10:56.406Z,140.62
2023-05-16T12:11:56.355Z,185.62
2023-05-16T12:12:56.401Z,236.25
2023-05-16T12:13:56.311Z,241.88
2023-05-16T12:14:56.336Z,241.88
2023-05-16T12:15:56.311Z,236.25
2023-05-16T12:16:56.373Z,236.25
2023-05-16T12:17:56.357Z,236.25
2023-05-16T12:18:56.311Z,208.12
2023-05-16T12:19:56.263Z,241.88
2023-05-16T12:20:56.242Z,174.38
2023-05-16T12:21:56.239Z,135.00
2023-05-16T12:22:56.211Z,129.38
2023-05-16T12:23:56.230Z,129.38
2023-05-16T12:24:56.232Z,264.38
2023-05-16T12:25:56.188Z,264.38
2023-05-16T12:26:56.172Z,140.62
2023-05-16T12:27:56.160Z,157.50
2023-05-16T12:28:56.178Z,118.12
2023-05-16T12:29:56.177Z,118.12
2023-05-16T12:30:56.158Z,123.75
2023-05-16T12:31:56.231Z,112.50
2023-05-16T12:32:56.220Z,185.62
2023-05-16T12:33:56.212Z,129.38
2023-05-16T12:34:56.195Z,123.75
2023-05-16T12:35:56.080Z,112.50
2023-05-16T12:36:56.103Z,112.50
2023-05-16T12:37:56.077Z,106.88
2023-05-16T12:38:56.064Z,106.88
2023-05-16T12:39:56.031Z,106.88
2023-05-16T12:40:56.018Z,112.50
2023-05-16T12:41:56.001Z,118.12
2023-05-16T12:42:56.009Z,202.50
2023-05-16T12:43:56.631Z,247.50
2023-05-16T12:44:56.647Z,241.88
2023-05-16T12:45:56.141Z,241.88
2023-05-16T12:46:56.245Z,253.12
2023-05-16T12:47:56.067Z,253.12
2023-05-16T12:48:55.959Z,219.38
2023-05-16T12:49:55.938Z,191.25
2023-05-16T12:50:55.956Z,230.62
2023-05-16T12:51:55.916Z,258.75
2023-05-16T12:52:55.932Z,258.75
2023-05-16T12:54:08.848Z,123.75
2023-05-16T12:54:56.867Z,106.88
2023-05-16T12:55:55.859Z,106.88
2023-05-16T12:56:55.887Z,106.88